Puto Island — XUTS7 — position and weather

sailwx.info

Track history (hours):
 
Tides and Currents Weather Stations Pressure Air Temp Water Temp Dewpoint Dewpoint Depression Visibility Wind Speed Wind Dir Waves Ship Positions

Puto Island

Last reported at 2016-Jun-15 08:33 UTC. Time now 2016-Jun-25 12:26 UTC.
Position N 34°36' E 135°04'.
Warning: this ship's position is 10 days out of date.

Length 71 m; draft 4.2 m.

Type: Cargo ship. MMSI: 514198000.

Date/timePositionNaut miles runAvg speedWind from/ knotsBaromVisibWave heightAir tempDewpointWater temp
2016-Jun-15 08:33N 34°36' E 135°04'10 9.6
2016-Jun-15 07:33N 34°37' E 135°16'8 0.6
2016-Jun-14 17:29N 34°42' E 135°24'0 0.0
2016-Jun-14 16:17N 34°42' E 135°24'0 0.0
2016-Jun-14 15:23N 34°42' E 135°24'0 0.0
2016-Jun-14 14:29N 34°42' E 135°24'0 0.0
2016-Jun-14 13:17N 34°42' E 135°24'0 0.0
2016-Jun-14 12:29N 34°42' E 135°24'0 0.0
2016-Jun-14 11:29N 34°42' E 135°24'0 0.0
2016-Jun-14 10:29N 34°42' E 135°24'0 0.0
2016-Jun-14 09:29N 34°42' E 135°24'0 0.0
2016-Jun-14 08:29N 34°42' E 135°24'0 0.0
2016-Jun-14 07:29N 34°42' E 135°24'0 0.0
2016-Jun-14 04:33N 34°42' E 135°24'0 0.0
2016-Jun-14 02:28N 34°42' E 135°24'0 0.0
2016-Jun-14 01:04N 34°42' E 135°24'0 0.0
2016-Jun-14 00:10N 34°42' E 135°24'0 0.0
2016-Jun-13 23:16N 34°42' E 135°24'0 0.0
2016-Jun-13 22:19N 34°42' E 135°24'3 3.7
2016-Jun-13 21:29N 34°40' E 135°21'0 0.0
2016-Jun-13 20:29N 34°40' E 135°21'0 0.0
2016-Jun-13 19:29N 34°40' E 135°21'0 0.0
2016-Jun-13 18:23N 34°40' E 135°21'0 0.0
2016-Jun-13 17:17N 34°40' E 135°21'0 0.0
2016-Jun-13 16:29N 34°40' E 135°21'0 0.0
2016-Jun-13 15:23N 34°40' E 135°21'0 0.1
2016-Jun-13 14:23N 34°40' E 135°21'0 0.0
2016-Jun-13 11:29N 34°40' E 135°21'0 0.0
2016-Jun-13 10:29N 34°40' E 135°21'0 0.0
2016-Jun-13 09:29N 34°40' E 135°21'0 0.0
2016-Jun-13 08:23N 34°40' E 135°21'0 0.0
2016-Jun-13 07:29N 34°40' E 135°21'0 0.0
2016-Jun-13 06:17N 34°40' E 135°21'0 0.0
2016-Jun-13 04:29N 34°40' E 135°21'0 0.0
2016-Jun-13 03:17N 34°40' E 135°21'810.4
2016-Jun-13 02:33N 34°35' E 135°13'  
Track history (hours):
 
Tides and Currents Weather Stations Pressure Air Temp Water Temp Dewpoint Dewpoint Depression Visibility Wind Speed Wind Dir Waves Ship Positions

Puto Island

Last reported at 2016-Jun-15 08:33 UTC. Time now 2016-Jun-25 12:26 UTC.
Position N 34°36' E 135°04'.
Warning: this ship's position is 10 days out of date.

Length 71 m; draft 4.2 m.

Type: Cargo ship. MMSI: 514198000.

Date/timePositionNaut miles runAvg speedWind from/ knotsBaromVisibWave heightAir tempDewpointWater temp
2016-Jun-15 08:33N 34°36' E 135°04'10 9.6
2016-Jun-15 07:33N 34°37' E 135°16'8 0.6
2016-Jun-14 17:29N 34°42' E 135°24'0 0.0
2016-Jun-14 16:17N 34°42' E 135°24'0 0.0
2016-Jun-14 15:23N 34°42' E 135°24'0 0.0
2016-Jun-14 14:29N 34°42' E 135°24'0 0.0
2016-Jun-14 13:17N 34°42' E 135°24'0 0.0
2016-Jun-14 12:29N 34°42' E 135°24'0 0.0
2016-Jun-14 11:29N 34°42' E 135°24'0 0.0
2016-Jun-14 10:29N 34°42' E 135°24'0 0.0
2016-Jun-14 09:29N 34°42' E 135°24'0 0.0
2016-Jun-14 08:29N 34°42' E 135°24'0 0.0
2016-Jun-14 07:29N 34°42' E 135°24'0 0.0
2016-Jun-14 04:33N 34°42' E 135°24'0 0.0
2016-Jun-14 02:28N 34°42' E 135°24'0 0.0
2016-Jun-14 01:04N 34°42' E 135°24'0 0.0
2016-Jun-14 00:10N 34°42' E 135°24'0 0.0
2016-Jun-13 23:16N 34°42' E 135°24'0 0.0
2016-Jun-13 22:19N 34°42' E 135°24'3 3.7
2016-Jun-13 21:29N 34°40' E 135°21'0 0.0
2016-Jun-13 20:29N 34°40' E 135°21'0 0.0
2016-Jun-13 19:29N 34°40' E 135°21'0 0.0
2016-Jun-13 18:23N 34°40' E 135°21'0 0.0
2016-Jun-13 17:17N 34°40' E 135°21'0 0.0
2016-Jun-13 16:29N 34°40' E 135°21'0 0.0
2016-Jun-13 15:23N 34°40' E 135°21'0 0.1
2016-Jun-13 14:23N 34°40' E 135°21'0 0.0
2016-Jun-13 11:29N 34°40' E 135°21'0 0.0
2016-Jun-13 10:29N 34°40' E 135°21'0 0.0
2016-Jun-13 09:29N 34°40' E 135°21'0 0.0
2016-Jun-13 08:23N 34°40' E 135°21'0 0.0
2016-Jun-13 07:29N 34°40' E 135°21'0 0.0
2016-Jun-13 06:17N 34°40' E 135°21'0 0.0
2016-Jun-13 04:29N 34°40' E 135°21'0 0.0
2016-Jun-13 03:17N 34°40' E 135°21'810.4
2016-Jun-13 02:33N 34°35' E 135°13'  

Dump ship's entire track history